Etusivu
METAR-TAF:

METAR-TAF

Lentoasemat :

Pangnirtungin lentoasema

Pangnirtung, Nunavut, Kanada

Leveyspiiri: 66-09N, Pituuspiiri: 065-43W, korkeus merenpinnasta: 23 m

Tämänhetkinen sää

Tämä raportti tehtiin 3 tuntia ja 7 minuuttia sitten, kello 22.00 UTC
Tuuli 9 kn lännestä
Lämpötila 4°C
Kosteus 75%
Ilmanpaine 1031 hPa
Näkyvyys: 24.1 km
Muutamia pilviä 22000 ft:n korkeudessa

METAR: CYXP 032200Z 26009KT 15SM FEW220 04/M00 A3045 RMK CI2 S0.0 AFT11UTC/0/LAST STFD OBS NEXT 041100Z SLP315

Aika: 21:07 (01:07 UTC)

Sääennuste

Tämä raportti tehtiin 6 tuntia ja 29 minuuttia sitten, kello 18.38 UTC
Ennuste voimassa 03. päivästä klo 19 UTC - 03. päivään klo 22 UTC
Tuuli 8 kn lännestä/lounaasta
Näkyvyys: 10 km
Hajanaisia pilviä 20000 ft:n korkeudessa

TAF: CYXP 031838Z 0319/0322 25008KT P6SM SCT200 RMK NXT FCST WILL BE ISSUED AT 041245Z

Säähavainnot ja -ennusteet yli 4000 lentoasemalta (METAR- ja TAF-raportit).

Käytössä olevat sääasemat on merkitty karttaan keltaisilla ja punaisilla pisteillä.

Aseta hiiri pisteen päälle nähdäksesi sääaseman nimen.

Klikkaa sitten nähdäksesi säähavainnot ja -ennusteet.

Kartan vaihtaminen: klikkaa mustalla rastilla varustettuja vihreitä pisteitä, niin voit zoomata sisään; viivalla varustettua vihreää pistettä, niin voit zoomata ulos tai vihreitä nuolia, niin pääset viereisille kartoille.


METAR-TAF: